sensor_id;sensor_type;location;lat;lon;timestamp;P1;durP1;ratioP1;P2;durP2;ratioP2
80510;SDS011;69840;53.040;8.600;2023-08-31T00:18:14;2.47;;;1.52;;
80510;SDS011;69840;53.040;8.600;2023-08-31T00:43:35;2.13;;;1.50;;
80510;SDS011;69840;53.040;8.600;2023-08-31T01:08:59;2.88;;;1.92;;
80510;SDS011;69840;53.040;8.600;2023-08-31T01:34:28;3.08;;;2.72;;
80510;SDS011;69840;53.040;8.600;2023-08-31T01:59:47;4.53;;;2.08;;
80510;SDS011;69840;53.040;8.600;2023-08-31T02:25:07;3.33;;;1.50;;
80510;SDS011;69840;53.040;8.600;2023-08-31T02:50:27;4.55;;;1.70;;
80510;SDS011;69840;53.040;8.600;2023-08-31T03:15:46;2.55;;;1.73;;
80510;SDS011;69840;53.040;8.600;2023-08-31T03:41:05;5.15;;;1.88;;
80510;SDS011;69840;53.040;8.600;2023-08-31T04:06:25;5.25;;;3.20;;
80510;SDS011;69840;53.040;8.600;2023-08-31T04:31:44;5.63;;;2.55;;
80510;SDS011;69840;53.040;8.600;2023-08-31T04:57:03;6.00;;;3.10;;
80510;SDS011;69840;53.040;8.600;2023-08-31T05:22:22;5.47;;;3.47;;
80510;SDS011;69840;53.040;8.600;2023-08-31T05:47:41;9.27;;;3.50;;
80510;SDS011;69840;53.040;8.600;2023-08-31T06:13:00;10.13;;;3.72;;
80510;SDS011;69840;53.040;8.600;2023-08-31T06:38:19;4.82;;;3.03;;
80510;SDS011;69840;53.040;8.600;2023-08-31T07:03:39;3.70;;;2.50;;
80510;SDS011;69840;53.040;8.600;2023-08-31T07:28:58;7.38;;;3.30;;
80510;SDS011;69840;53.040;8.600;2023-08-31T07:54:20;7.00;;;3.78;;
80510;SDS011;69840;53.040;8.600;2023-08-31T08:19:40;5.55;;;3.65;;
80510;SDS011;69840;53.040;8.600;2023-08-31T08:44:59;7.72;;;4.60;;
80510;SDS011;69840;53.040;8.600;2023-08-31T09:10:21;2.40;;;1.67;;
80510;SDS011;69840;53.040;8.600;2023-08-31T09:35:40;3.92;;;3.60;;
80510;SDS011;69840;53.040;8.600;2023-08-31T10:00:59;1.35;;;0.93;;
80510;SDS011;69840;53.040;8.600;2023-08-31T10:26:26;1.20;;;0.82;;
80510;SDS011;69840;53.040;8.600;2023-08-31T10:52:30;2.63;;;0.68;;
80510;SDS011;69840;53.040;8.600;2023-08-31T11:42:59;4.38;;;1.20;;
80510;SDS011;69840;53.040;8.600;2023-08-31T12:08:27;1.58;;;0.50;;
80510;SDS011;69840;53.040;8.600;2023-08-31T12:33:46;2.40;;;0.50;;
80510;SDS011;69840;53.040;8.600;2023-08-31T12:59:05;0.80;;;0.60;;
80510;SDS011;69840;53.040;8.600;2023-08-31T13:24:24;1.38;;;0.40;;
80510;SDS011;69840;53.040;8.600;2023-08-31T13:49:43;3.80;;;0.80;;
80510;SDS011;69840;53.040;8.600;2023-08-31T14:15:03;1.05;;;0.60;;
80510;SDS011;69840;53.040;8.600;2023-08-31T14:40:23;0.95;;;0.50;;
80510;SDS011;69840;53.040;8.600;2023-08-31T15:05:47;0.93;;;0.60;;
80510;SDS011;69840;53.040;8.600;2023-08-31T15:31:08;1.23;;;0.30;;
80510;SDS011;69840;53.040;8.600;2023-08-31T15:56:30;1.08;;;0.80;;
80510;SDS011;69840;53.040;8.600;2023-08-31T16:47:08;0.85;;;0.52;;
80510;SDS011;69840;53.040;8.600;2023-08-31T17:12:28;1.10;;;0.60;;
80510;SDS011;69840;53.040;8.600;2023-08-31T17:37:50;1.02;;;0.40;;
80510;SDS011;69840;53.040;8.600;2023-08-31T18:03:09;0.60;;;0.30;;
80510;SDS011;69840;53.040;8.600;2023-08-31T18:28:29;1.00;;;0.60;;
80510;SDS011;69840;53.040;8.600;2023-08-31T18:53:48;0.90;;;0.70;;
80510;SDS011;69840;53.040;8.600;2023-08-31T19:19:08;1.63;;;1.52;;
80510;SDS011;69840;53.040;8.600;2023-08-31T19:44:27;1.02;;;0.68;;
80510;SDS011;69840;53.040;8.600;2023-08-31T20:09:46;1.67;;;0.75;;
80510;SDS011;69840;53.040;8.600;2023-08-31T20:35:06;1.20;;;0.90;;
80510;SDS011;69840;53.040;8.600;2023-08-31T21:00:25;1.27;;;0.60;;
80510;SDS011;69840;53.040;8.600;2023-08-31T21:25:45;1.35;;;1.05;;
80510;SDS011;69840;53.040;8.600;2023-08-31T21:51:05;2.45;;;1.08;;
80510;SDS011;69840;53.040;8.600;2023-08-31T22:16:24;3.25;;;0.85;;
80510;SDS011;69840;53.040;8.600;2023-08-31T22:41:43;4.25;;;1.38;;
80510;SDS011;69840;53.040;8.600;2023-08-31T23:07:05;2.15;;;1.55;;
80510;SDS011;69840;53.040;8.600;2023-08-31T23:32:24;1.90;;;1.02;;
80510;SDS011;69840;53.040;8.600;2023-08-31T23:57:43;4.28;;;2.00;;
